Alghero / Fertilia Airport LIEA

Flugplatz Daten

Name: Alghero / Fertilia Airport

Ident: LIEA

Lat: 40,63209915

Long: 8,290769577

Platzhöhe: 87 ft

IataCode: AHO

City: Alghero

Homepage: http://www.aeroportodialghero.it/home_en.asp

Metar

2021/12/03 23:20
LIEA 032320Z 32004KT 280V340 CAVOK 11/06 Q1017

Taf

2021/12/03 18:00
TAF LIEA 031700Z 0318/0418 03010KT 9999 SCT040
TEMPO 0400/0406 1200 BCFG BKN006
TEMPO 0406/0411 4000 RA
Gewünschte Webcam nicht vorhanden? Dann fügen Sie eine hinzu. Sie wird dann so schnell wie möglich freigeschaltet
Url: Title: